Time,TemperatureF,DewpointF,PressureIn,WindDirection,WindDirectionDegrees,WindSpeedMPH,WindSpeedGustMPH,Humidity,HourlyPrecipIn,Conditions,Clouds,dailyrainin,SoftwareType,DateUTC
2013-07-05 00:12:00,61.0,57.0,-100.00,SE,145,2.0,3.0,87,-99.99,,,-99.99,,2013-07-05 07:12:00,
2013-07-05 00:23:00,61.0,57.0,-100.00,South,190,1.0,2.0,87,-99.99,,,-99.99,,2013-07-05 07:23:00,
2013-07-05 01:22:00,61.0,57.0,-100.00,ENE,68,2.0,3.0,86,-99.99,,,-99.99,,2013-07-05 08:22:00,
2013-07-05 01:43:00,61.0,57.0,-100.00,East,92,3.0,5.0,87,-99.99,,,-99.99,,2013-07-05 08:43:00,
2013-07-05 02:13:00,61.0,57.0,-100.00,East,86,2.0,4.0,87,-99.99,,,-99.99,,2013-07-05 09:13:00,
2013-07-05 02:23:00,61.0,57.0,-100.00,East,87,2.0,3.0,88,-99.99,,,-99.99,,2013-07-05 09:23:00,
2013-07-05 03:13:00,60.0,56.0,-100.00,East,81,3.0,5.0,88,-99.99,,,-99.99,,2013-07-05 10:13:00,
2013-07-05 03:23:00,60.0,56.0,-100.00,East,81,3.0,5.0,88,-99.99,,,-99.99,,2013-07-05 10:23:00,
2013-07-05 03:44:00,60.0,56.0,-100.00,ENE,66,4.0,5.0,88,-99.99,,,-99.99,,2013-07-05 10:44:00,
2013-07-05 03:55:00,59.0,56.0,-100.00,ENE,68,4.0,5.0,89,-99.99,,,-99.99,,2013-07-05 10:55:00,
2013-07-05 04:13:00,58.0,55.0,-100.00,NE,43,3.0,5.0,90,-99.99,,,-99.99,,2013-07-05 11:13:00,
2013-07-05 04:23:00,58.0,55.0,-100.00,NE,55,2.0,3.0,90,-99.99,,,-99.99,,2013-07-05 11:23:00,
2013-07-05 04:45:00,58.0,55.0,-100.00,ENE,59,4.0,6.0,89,-99.99,,,-99.99,,2013-07-05 11:45:00,
2013-07-05 05:12:00,58.0,54.0,-100.00,NE,46,4.0,5.0,87,-99.99,,,-99.99,,2013-07-05 12:12:00,
2013-07-05 05:23:00,59.0,55.0,-100.00,NE,49,3.0,4.0,87,-99.99,,,-99.99,,2013-07-05 12:23:00,
2013-07-05 06:12:00,60.0,56.0,-100.00,ENE,58,2.0,2.0,87,-99.99,,,-99.99,,2013-07-05 13:12:00,
2013-07-05 06:23:00,60.0,56.0,-100.00,ENE,58,1.0,2.0,87,-99.99,,,-99.99,,2013-07-05 13:23:00,
2013-07-05 06:44:00,60.0,56.0,-100.00,SE,125,0.0,1.0,87,-99.99,,,-99.99,,2013-07-05 13:44:00,
2013-07-05 07:12:00,60.0,56.0,-100.00,East,83,2.0,4.0,87,-99.99,,,-99.99,,2013-07-05 14:12:00,
2013-07-05 07:23:00,60.0,56.0,-100.00,East,83,2.0,4.0,87,-99.99,,,-99.99,,2013-07-05 14:23:00,
2013-07-05 07:35:00,60.0,56.0,-100.00,ENE,72,2.0,3.0,87,-99.99,,,-99.99,,2013-07-05 14:35:00,
2013-07-05 07:44:00,61.0,57.0,-100.00,SE,138,1.0,4.0,86,-99.99,,,-99.99,,2013-07-05 14:44:00,
2013-07-05 07:54:00,62.0,57.0,-100.00,SSW,194,2.0,4.0,85,-99.99,,,-99.99,,2013-07-05 14:54:00,
2013-07-05 08:03:00,62.0,57.0,-100.00,West,281,2.0,4.0,85,-99.99,,,-99.99,,2013-07-05 15:03:00,
2013-07-05 08:43:00,64.0,57.0,-100.00,ESE,117,1.0,3.0,79,-99.99,,,-99.99,,2013-07-05 15:43:00,
2013-07-05 09:11:00,67.0,57.0,-100.00,SW,215,2.0,5.0,71,-99.99,,,-99.99,,2013-07-05 16:11:00,
2013-07-05 09:33:00,67.0,57.0,-100.00,WSW,243,5.0,9.0,70,-99.99,,,-99.99,,2013-07-05 16:33:00,
2013-07-05 09:44:00,68.0,57.0,-100.00,WSW,238,3.0,8.0,69,-99.99,,,-99.99,,2013-07-05 16:44:00,
2013-07-05 09:53:00,68.0,57.0,-100.00,West,261,3.0,7.0,68,-99.99,,,-99.99,,2013-07-05 16:53:00,
2013-07-05 10:11:00,69.0,57.0,-100.00,West,280,3.0,8.0,66,-99.99,,,-99.99,,2013-07-05 17:11:00,
2013-07-05 10:22:00,71.0,57.0,-100.00,SSW,207,4.0,8.0,62,-99.99,,,-99.99,,2013-07-05 17:22:00,
2013-07-05 10:42:00,71.0,57.0,-100.00,SW,229,3.0,8.0,61,-99.99,,,-99.99,,2013-07-05 17:42:00,
2013-07-05 11:22:00,75.0,56.0,-100.00,SW,217,5.0,10.0,52,-99.99,,,-99.99,,2013-07-05 18:22:00,
2013-07-05 11:43:00,75.0,57.0,-100.00,SW,234,6.0,10.0,53,-99.99,,,-99.99,,2013-07-05 18:43:00,
2013-07-05 11:53:00,75.0,57.0,-100.00,SW,231,6.0,14.0,54,-99.99,,,-99.99,,2013-07-05 18:53:00,
2013-07-05 12:22:00,71.0,59.0,-100.00,South,177,6.0,11.0,65,-99.99,,,-99.99,,2013-07-05 19:22:00,
2013-07-05 12:42:00,71.0,59.0,-100.00,South,190,3.0,7.0,66,-99.99,,,-99.99,,2013-07-05 19:42:00,
2013-07-05 12:52:00,71.0,59.0,-100.00,South,190,3.0,7.0,66,-99.99,,,-99.99,,2013-07-05 19:52:00,
2013-07-05 13:11:00,75.0,60.0,-100.00,SSW,209,4.0,8.0,59,-99.99,,,-99.99,,2013-07-05 20:11:00,
2013-07-05 13:22:00,77.0,60.0,-100.00,SW,219,4.0,9.0,55,-99.99,,,-99.99,,2013-07-05 20:22:00,
2013-07-05 13:33:00,76.0,59.0,-100.00,WSW,243,4.0,9.0,55,-99.99,,,-99.99,,2013-07-05 20:33:00,
2013-07-05 14:11:00,76.0,59.0,-100.00,SW,233,8.0,15.0,55,-99.99,,,-99.99,,2013-07-05 21:11:00,
2013-07-05 14:42:00,78.0,59.0,-100.00,WSW,243,5.0,11.0,52,-99.99,,,-99.99,,2013-07-05 21:42:00,
2013-07-05 14:53:00,79.0,58.0,-100.00,SW,227,6.0,11.0,48,-99.99,,,-99.99,,2013-07-05 21:53:00,
2013-07-05 15:01:00,78.0,57.0,-100.00,WSW,246,8.0,13.0,49,-99.99,,,-99.99,,2013-07-05 22:01:00,
2013-07-05 15:11:00,79.0,58.0,-100.00,SW,233,5.0,9.0,48,-99.99,,,-99.99,,2013-07-05 22:11:00,
2013-07-05 15:43:00,81.0,57.0,-100.00,SW,222,5.0,10.0,44,-99.99,,,-99.99,,2013-07-05 22:43:00,
2013-07-05 15:53:00,80.0,57.0,-100.00,SW,231,7.0,12.0,46,-99.99,,,-99.99,,2013-07-05 22:53:00,
2013-07-05 16:11:00,79.0,57.0,-100.00,SW,235,6.0,10.0,47,-99.99,,,-99.99,,2013-07-05 23:11:00,
2013-07-05 16:42:00,78.0,58.0,-100.00,SW,233,7.0,12.0,51,-99.99,,,-99.99,,2013-07-05 23:42:00,
2013-07-05 17:01:00,76.0,59.0,-100.00,WSW,241,9.0,14.0,56,-99.99,,,-99.99,,2013-07-06 00:01:00,
2013-07-05 17:11:00,76.0,59.0,-100.00,WSW,241,9.0,14.0,56,-99.99,,,-99.99,,2013-07-06 00:11:00,
2013-07-05 17:22:00,75.0,58.0,-100.00,WSW,243,7.0,11.0,56,-99.99,,,-99.99,,2013-07-06 00:22:00,
2013-07-05 17:33:00,76.0,59.0,-100.00,WSW,237,6.0,12.0,56,-99.99,,,-99.99,,2013-07-06 00:33:00,
2013-07-05 17:53:00,75.0,59.0,-100.00,SW,235,5.0,9.0,57,-99.99,,,-99.99,,2013-07-06 00:53:00,
2013-07-05 18:11:00,73.0,59.0,-100.00,WSW,253,6.0,12.0,61,-99.99,,,-99.99,,2013-07-06 01:11:00,
2013-07-05 18:22:00,72.0,59.0,-100.00,WSW,245,6.0,11.0,63,-99.99,,,-99.99,,2013-07-06 01:22:00,
2013-07-05 18:53:00,72.0,59.0,-100.00,WSW,257,5.0,11.0,64,-99.99,,,-99.99,,2013-07-06 01:53:00,
2013-07-05 19:11:00,70.0,59.0,-100.00,WSW,255,6.0,12.0,68,-99.99,,,-99.99,,2013-07-06 02:11:00,
2013-07-05 19:33:00,69.0,59.0,-100.00,WSW,253,4.0,8.0,71,-99.99,,,-99.99,,2013-07-06 02:33:00,
2013-07-05 19:43:00,68.0,59.0,-100.00,WSW,255,5.0,8.0,72,-99.99,,,-99.99,,2013-07-06 02:43:00,
2013-07-05 19:52:00,68.0,59.0,-100.00,WSW,249,3.0,8.0,73,-99.99,,,-99.99,,2013-07-06 02:52:00,
2013-07-05 20:11:00,66.0,58.0,-100.00,WSW,241,4.0,7.0,76,-99.99,,,-99.99,,2013-07-06 03:11:00,
2013-07-05 21:12:00,64.0,59.0,-100.00,WNW,289,3.0,5.0,84,-99.99,,,-99.99,,2013-07-06 04:12:00,
2013-07-05 21:22:00,64.0,59.0,-100.00,WNW,289,3.0,5.0,84,-99.99,,,-99.99,,2013-07-06 04:22:00,
2013-07-05 21:33:00,63.0,58.0,-100.00,West,268,3.0,5.0,85,-99.99,,,-99.99,,2013-07-06 04:33:00,
2013-07-05 21:43:00,63.0,58.0,-100.00,West,275,3.0,4.0,85,-99.99,,,-99.99,,2013-07-06 04:43:00,
2013-07-05 21:53:00,63.0,58.0,-100.00,WSW,252,2.0,4.0,85,-99.99,,,-99.99,,2013-07-06 04:53:00,
2013-07-05 22:11:00,64.0,59.0,-100.00,SSW,204,2.0,3.0,85,-99.99,,,-99.99,,2013-07-06 05:11:00,
2013-07-05 22:22:00,64.0,59.0,-100.00,SW,215,2.0,4.0,84,-99.99,,,-99.99,,2013-07-06 05:22:00,
2013-07-05 22:33:00,64.0,59.0,-100.00,ESE,123,1.0,3.0,84,-99.99,,,-99.99,,2013-07-06 05:33:00,
2013-07-05 22:42:00,64.0,59.0,-100.00,West,276,1.0,3.0,84,-99.99,,,-99.99,,2013-07-06 05:42:00,
2013-07-05 22:53:00,64.0,59.0,-100.00,SW,216,1.0,3.0,84,-99.99,,,-99.99,,2013-07-06 05:53:00,
2013-07-05 23:12:00,64.0,59.0,-100.00,East,99,1.0,3.0,84,-99.99,,,-99.99,,2013-07-06 06:12:00,
2013-07-05 23:22:00,64.0,59.0,-100.00,East,99,1.0,3.0,84,-99.99,,,-99.99,,2013-07-06 06:22:00,
2013-07-05 23:43:00,63.0,58.0,-100.00,WSW,247,3.0,4.0,85,-99.99,,,-99.99,,2013-07-06 06:43:00,
2013-07-05 23:53:00,63.0,59.0,-100.00,West,263,2.0,4.0,86,-99.99,,,-99.99,,2013-07-06 06:53:00,